createdAt,value
2022-09-05T00:02:04.279Z,15.83
2022-09-05T00:04:47.788Z,15.85
2022-09-05T00:07:34.410Z,15.80
2022-09-05T00:10:35.950Z,15.79
2022-09-05T00:13:22.651Z,15.87
2022-09-05T00:16:33.542Z,15.86
2022-09-05T00:24:24.708Z,15.85
2022-09-05T00:24:35.329Z,15.87
2022-09-05T00:26:32.238Z,15.86
2022-09-05T00:29:09.524Z,15.83
2022-09-05T00:31:57.259Z,15.82
2022-09-05T00:34:47.190Z,15.80
2022-09-05T00:37:40.158Z,15.82
2022-09-05T00:40:42.903Z,15.86
2022-09-05T00:43:17.796Z,15.88
2022-09-05T00:46:02.637Z,15.86
2022-09-05T00:48:53.449Z,15.88
2022-09-05T00:51:41.779Z,15.78
2022-09-05T00:54:12.913Z,15.80
2022-09-05T00:57:00.834Z,15.85
2022-09-05T00:59:58.892Z,15.82
2022-09-05T01:02:52.373Z,15.77
2022-09-05T01:05:47.291Z,15.75
2022-09-05T01:08:22.983Z,15.68
2022-09-05T01:10:52.884Z,15.69
2022-09-05T01:14:03.783Z,15.69
2022-09-05T01:16:53.682Z,15.71
2022-09-05T01:19:38.301Z,15.67
2022-09-05T01:22:33.385Z,15.65
2022-09-05T01:25:25.807Z,15.59
2022-09-05T01:29:14.098Z,15.53
2022-09-05T01:31:09.597Z,15.57
2022-09-05T01:33:53.961Z,15.57
2022-09-05T01:36:29.561Z,15.49
2022-09-05T01:40:10.546Z,15.50
2022-09-05T01:42:08.585Z,15.50
2022-09-05T01:44:55.396Z,15.53
2022-09-05T01:47:43.186Z,15.58
2022-09-05T01:50:15.957Z,15.58
2022-09-05T01:53:10.310Z,15.56
2022-09-05T01:56:08.762Z,15.59
2022-09-05T01:59:10.905Z,15.61
2022-09-05T02:01:46.603Z,15.66
2022-09-05T02:04:49.415Z,15.69
2022-09-05T02:07:30.104Z,15.74
2022-09-05T02:10:14.470Z,15.79
2022-09-05T02:13:01.908Z,15.73
2022-09-05T02:15:42.901Z,15.71
2022-09-05T02:18:23.283Z,15.74
2022-09-05T02:20:58.807Z,15.78
2022-09-05T02:23:52.681Z,15.80
2022-09-05T02:26:35.961Z,15.84
2022-09-05T02:29:29.169Z,15.90
2022-09-05T02:32:03.591Z,15.91
2022-09-05T02:34:58.938Z,15.92
2022-09-05T02:39:57.610Z,15.96
2022-09-05T02:45:01.105Z,15.95
2022-09-05T02:45:14.077Z,15.97
2022-09-05T02:46:30.747Z,15.91
2022-09-05T02:50:14.163Z,15.91
2022-09-05T02:57:25.626Z,15.88
2022-09-05T02:57:43.490Z,15.90
2022-09-05T02:58:11.117Z,15.92
2022-09-05T03:00:54.985Z,15.94
2022-09-05T03:03:34.976Z,15.96
2022-09-05T03:06:34.946Z,15.92
2022-09-05T03:09:23.093Z,15.86
2022-09-05T03:12:29.339Z,15.80
2022-09-05T03:15:43.489Z,15.76
2022-09-05T03:18:21.032Z,15.71
2022-09-05T03:21:09.007Z,15.70
2022-09-05T03:23:58.947Z,15.73
2022-09-05T03:26:43.521Z,15.70
2022-09-05T03:29:34.745Z,15.69
2022-09-05T03:32:07.431Z,15.70
2022-09-05T03:35:08.198Z,15.71
2022-09-05T03:38:01.929Z,15.71
2022-09-05T03:40:48.379Z,15.71
2022-09-05T03:43:29.815Z,15.69
2022-09-05T03:46:15.285Z,15.65
2022-09-05T03:50:03.726Z,15.65
2022-09-05T03:57:14.512Z,15.66
2022-09-05T03:57:15.839Z,15.68
2022-09-05T03:58:31.867Z,15.67
2022-09-05T04:03:20.268Z,15.68
2022-09-05T04:08:18.263Z,15.58
2022-09-05T04:08:20.722Z,15.62
2022-09-05T04:10:35.983Z,15.61
2022-09-05T04:13:09.517Z,15.60
2022-09-05T04:15:46.409Z,15.61
2022-09-05T04:18:18.701Z,15.58
2022-09-05T04:21:27.040Z,15.58
2022-09-05T04:24:14.949Z,15.57
2022-09-05T04:27:00.199Z,15.55
2022-09-05T04:29:57.563Z,15.53
2022-09-05T04:32:54.637Z,15.48
2022-09-05T04:35:21.761Z,15.52
2022-09-05T04:37:51.029Z,15.53
2022-09-05T04:40:40.028Z,15.53
2022-09-05T04:43:13.487Z,15.54
2022-09-05T04:46:19.343Z,15.48
2022-09-05T04:49:04.563Z,15.48
2022-09-05T04:51:41.319Z,15.47
2022-09-05T04:54:35.273Z,15.47
2022-09-05T04:57:14.251Z,15.42
2022-09-05T05:03:05.606Z,15.33
2022-09-05T05:06:15.486Z,15.31
2022-09-05T05:06:31.652Z,15.33
2022-09-05T05:08:53.947Z,15.37
2022-09-05T05:17:53.918Z,15.44
2022-09-05T05:18:04.179Z,15.44
2022-09-05T05:18:11.989Z,15.47
2022-09-05T05:21:07.332Z,15.50
2022-09-05T05:23:36.223Z,15.63
2022-09-05T05:26:07.019Z,15.73
2022-09-05T05:28:58.573Z,15.82
2022-09-05T05:31:30.293Z,15.92
2022-09-05T05:34:06.143Z,16.09
2022-09-05T05:36:55.291Z,16.34
2022-09-05T05:39:28.842Z,16.51
2022-09-05T05:41:57.125Z,16.64
2022-09-05T05:44:28.644Z,16.73
2022-09-05T05:47:31.724Z,16.80
2022-09-05T05:50:43.545Z,16.88
2022-09-05T05:53:45.443Z,16.91
2022-09-05T05:56:32.002Z,16.93
2022-09-05T05:59:13.547Z,16.93
2022-09-05T06:01:58.606Z,17.00
2022-09-05T06:05:04.022Z,17.07
2022-09-05T06:09:26.800Z,17.14
2022-09-05T06:14:55.645Z,17.27
2022-09-05T06:15:06.393Z,17.20
2022-09-05T06:17:19.994Z,17.31
2022-09-05T06:22:11.120Z,17.37
2022-09-05T06:23:56.388Z,17.45
2022-09-05T06:26:44.641Z,17.47
2022-09-05T06:29:45.186Z,17.53
2022-09-05T06:32:56.914Z,17.58
2022-09-05T06:35:41.362Z,17.62
2022-09-05T06:38:42.747Z,17.68
2022-09-05T06:41:33.707Z,17.75
2022-09-05T06:44:27.866Z,17.76
2022-09-05T06:47:24.119Z,17.79
2022-09-05T06:49:50.354Z,17.84
2022-09-05T06:52:28.204Z,17.91
2022-09-05T06:55:15.495Z,18.02
2022-09-05T06:58:15.942Z,18.09
2022-09-05T07:00:50.376Z,18.13
2022-09-05T07:03:23.988Z,18.22
2022-09-05T07:05:58.452Z,18.22
2022-09-05T07:08:52.033Z,18.21
2022-09-05T07:11:45.069Z,18.25
2022-09-05T07:14:36.267Z,18.27
2022-09-05T07:17:30.851Z,18.34
2022-09-05T07:20:01.874Z,18.36
2022-09-05T07:22:47.326Z,18.35
2022-09-05T07:25:22.602Z,18.40
2022-09-05T07:28:26.495Z,18.47
2022-09-05T07:30:55.662Z,18.46
2022-09-05T07:33:29.077Z,18.47
2022-09-05T07:36:19.493Z,18.56
2022-09-05T07:39:02.342Z,18.69
2022-09-05T07:41:41.036Z,18.71
2022-09-05T07:44:30.786Z,18.71
2022-09-05T07:47:10.157Z,18.76
2022-09-05T07:49:51.901Z,18.81
2022-09-05T07:56:49.703Z,18.85
2022-09-05T07:57:00.082Z,19.01
2022-09-05T07:58:17.265Z,19.10
2022-09-05T08:00:50.793Z,19.10
2022-09-05T08:03:23.181Z,19.17
2022-09-05T08:05:54.180Z,19.23
2022-09-05T08:08:31.502Z,19.27
2022-09-05T08:11:23.542Z,19.36
2022-09-05T08:14:45.187Z,19.34
2022-09-05T08:17:17.154Z,19.39
2022-09-05T08:20:08.982Z,19.43
2022-09-05T08:23:04.373Z,19.42
2022-09-05T08:25:57.557Z,19.56
2022-09-05T08:28:45.137Z,19.61
2022-09-05T08:31:21.905Z,19.62
2022-09-05T08:33:52.717Z,19.69
2022-09-05T08:36:36.219Z,19.72
2022-09-05T08:39:05.986Z,19.85
2022-09-05T08:42:05.030Z,20.01
2022-09-05T08:46:42.505Z,20.09
2022-09-05T08:48:12.653Z,20.11
2022-09-05T08:51:13.495Z,20.20
2022-09-05T08:54:04.158Z,20.25
2022-09-05T08:56:48.371Z,20.27
2022-09-05T08:59:33.614Z,20.34
2022-09-05T09:02:47.937Z,20.47
2022-09-05T09:05:24.031Z,20.58
2022-09-05T09:07:56.607Z,20.62
2022-09-05T09:10:37.601Z,20.60
2022-09-05T09:13:23.069Z,20.60
2022-09-05T09:16:06.584Z,20.75
2022-09-05T09:18:53.568Z,20.81
2022-09-05T09:21:38.941Z,20.86
2022-09-05T09:24:40.149Z,20.82
2022-09-05T09:27:13.222Z,20.88
2022-09-05T09:29:42.801Z,20.85
2022-09-05T09:32:14.253Z,20.90
2022-09-05T09:35:06.464Z,20.95
2022-09-05T09:38:07.017Z,20.99
2022-09-05T09:40:52.368Z,20.98
2022-09-05T09:43:53.871Z,21.12
2022-09-05T09:46:43.538Z,21.19
2022-09-05T09:49:49.672Z,21.15
2022-09-05T09:52:56.601Z,21.11
2022-09-05T09:55:45.968Z,21.06
2022-09-05T09:58:15.681Z,21.10
2022-09-05T10:01:00.832Z,21.23
2022-09-05T10:09:03.050Z,21.25
2022-09-05T10:11:09.183Z,21.41
2022-09-05T10:11:09.343Z,21.29
2022-09-05T10:13:20.031Z,21.46
2022-09-05T10:16:21.486Z,21.54
2022-09-05T10:19:02.360Z,21.68
2022-09-05T10:24:52.581Z,21.73
2022-09-05T10:27:29.921Z,21.81
2022-09-05T10:30:08.067Z,21.92
2022-09-05T10:35:13.252Z,21.98
2022-09-05T10:36:07.907Z,21.94
2022-09-05T10:38:46.421Z,21.81
2022-09-05T10:41:20.935Z,21.73
2022-09-05T10:44:02.923Z,21.84
2022-09-05T10:47:00.385Z,21.90
2022-09-05T10:49:33.801Z,22.03
2022-09-05T10:52:22.353Z,22.13
2022-09-05T10:55:15.208Z,22.19
2022-09-05T10:57:51.222Z,22.33
2022-09-05T11:02:30.288Z,22.37
2022-09-05T11:03:52.644Z,22.35
2022-09-05T11:06:28.436Z,22.40
2022-09-05T11:09:06.142Z,22.52
2022-09-05T11:11:45.942Z,22.60
2022-09-05T11:14:44.232Z,22.69
2022-09-05T11:17:31.967Z,22.77
2022-09-05T11:20:30.328Z,22.74
2022-09-05T11:23:12.659Z,22.90
2022-09-05T11:25:41.275Z,23.10
2022-09-05T11:28:22.264Z,23.32
2022-09-05T11:30:54.630Z,23.32
2022-09-05T11:39:50.314Z,23.22
2022-09-05T11:39:53.971Z,23.21
2022-09-05T11:40:00.589Z,23.19
2022-09-05T11:43:01.977Z,23.20
2022-09-05T11:46:02.801Z,23.18
2022-09-05T11:48:35.270Z,23.21
2022-09-05T11:51:33.975Z,23.17
2022-09-05T11:54:06.532Z,23.04
2022-09-05T11:57:18.016Z,23.06
2022-09-05T12:00:32.184Z,23.23
2022-09-05T12:03:58.260Z,23.15
2022-09-05T12:06:48.193Z,23.04
2022-09-05T12:09:38.067Z,23.06
2022-09-05T12:12:41.300Z,23.20
2022-09-05T12:15:34.252Z,23.30
2022-09-05T12:18:18.942Z,23.06
2022-09-05T12:20:52.362Z,23.07
2022-09-05T12:23:49.365Z,23.08
2022-09-05T12:29:29.332Z,23.04
2022-09-05T12:33:48.017Z,23.17
2022-09-05T12:36:06.665Z,23.39
2022-09-05T12:40:58.291Z,23.45
2022-09-05T12:41:44.902Z,23.25
2022-09-05T12:42:09.901Z,23.02
2022-09-05T12:44:42.713Z,23.21
2022-09-05T12:47:18.757Z,23.23
2022-09-05T12:50:14.438Z,23.14
2022-09-05T12:52:46.602Z,22.95
2022-09-05T12:55:29.359Z,22.96
2022-09-05T13:02:58.008Z,22.93
2022-09-05T13:03:01.948Z,22.88
2022-09-05T13:04:16.102Z,22.67
2022-09-05T13:06:42.427Z,22.74
2022-09-05T13:09:11.004Z,22.68
2022-09-05T13:14:57.342Z,22.77
2022-09-05T13:15:28.663Z,23.01
2022-09-05T13:18:08.506Z,23.26
2022-09-05T13:20:39.267Z,23.43
2022-09-05T13:23:31.157Z,23.77
2022-09-05T13:26:08.249Z,23.75
2022-09-05T13:28:52.818Z,23.69
2022-09-05T13:38:04.004Z,23.65
2022-09-05T13:38:20.930Z,23.57
2022-09-05T13:38:29.313Z,23.59
2022-09-05T13:40:43.351Z,23.75
2022-09-05T13:43:26.493Z,23.82
2022-09-05T13:46:10.962Z,23.78
2022-09-05T13:51:54.645Z,23.33
2022-09-05T13:54:43.619Z,23.16
2022-09-05T13:57:33.159Z,22.95
2022-09-05T14:00:08.780Z,22.57
2022-09-05T14:03:39.101Z,22.37
2022-09-05T14:06:45.940Z,22.22
2022-09-05T14:09:41.253Z,22.16
2022-09-05T14:12:11.642Z,22.19
2022-09-05T14:17:54.527Z,22.03
2022-09-05T14:21:00.829Z,22.08
2022-09-05T14:23:40.573Z,22.20
2022-09-05T14:26:15.853Z,22.31
2022-09-05T14:29:23.095Z,22.32
2022-09-05T14:37:36.554Z,22.05
2022-09-05T14:37:55.238Z,21.90
2022-09-05T14:38:56.362Z,21.84
2022-09-05T14:41:28.727Z,21.86
2022-09-05T14:44:27.589Z,22.01
2022-09-05T14:47:35.644Z,22.15
2022-09-05T14:50:06.131Z,22.29
2022-09-05T14:52:35.572Z,22.22
2022-09-05T15:02:44.773Z,22.13
2022-09-05T15:02:45.242Z,22.18
2022-09-05T15:06:34.154Z,21.71
2022-09-05T15:12:14.753Z,21.65
2022-09-05T15:12:24.183Z,21.63
2022-09-05T15:14:51.455Z,21.67
2022-09-05T15:17:24.166Z,21.66
2022-09-05T15:20:05.344Z,21.59
2022-09-05T15:22:38.543Z,21.47
2022-09-05T15:25:18.723Z,21.37
2022-09-05T15:27:47.089Z,21.29
2022-09-05T15:30:34.881Z,21.30
2022-09-05T15:33:25.406Z,21.25
2022-09-05T15:35:53.183Z,21.27
2022-09-05T15:38:27.330Z,21.17
2022-09-05T15:41:19.524Z,21.12
2022-09-05T15:44:04.601Z,21.21
2022-09-05T15:47:01.238Z,21.19
2022-09-05T15:49:52.584Z,21.20
2022-09-05T15:52:19.248Z,21.14
2022-09-05T15:55:03.665Z,21.01
2022-09-05T15:57:34.284Z,20.92
2022-09-05T16:00:10.136Z,20.86
2022-09-05T16:02:44.809Z,20.83
2022-09-05T16:10:36.492Z,20.82
2022-09-05T16:10:50.657Z,20.77
2022-09-05T16:12:07.656Z,20.63
2022-09-05T16:14:26.626Z,20.59
2022-09-05T16:23:13.032Z,20.61
2022-09-05T16:23:23.749Z,20.58
2022-09-05T16:23:25.664Z,20.55
2022-09-05T16:25:57.001Z,20.47
2022-09-05T16:28:27.908Z,20.40
2022-09-05T16:31:19.354Z,20.31
2022-09-05T16:33:47.641Z,20.33
2022-09-05T16:36:19.044Z,20.36
2022-09-05T16:38:49.725Z,20.35
2022-09-05T16:41:41.695Z,20.34
2022-09-05T16:44:27.053Z,20.35
2022-09-05T16:47:39.740Z,20.34
2022-09-05T16:50:34.453Z,20.31
2022-09-05T16:53:20.928Z,20.33
2022-09-05T16:56:06.869Z,20.44
2022-09-05T16:58:46.093Z,20.31
2022-09-05T17:01:37.742Z,20.30
2022-09-05T17:04:36.925Z,20.27
2022-09-05T17:07:16.452Z,20.13
2022-09-05T17:09:45.302Z,20.07
2022-09-05T17:12:22.880Z,20.04
2022-09-05T17:14:53.973Z,20.04
2022-09-05T17:18:20.165Z,20.00
2022-09-05T17:20:25.234Z,19.99
2022-09-05T17:26:36.971Z,19.92
2022-09-05T17:29:25.254Z,19.57
2022-09-05T17:29:28.321Z,19.76
2022-09-05T17:31:58.221Z,19.49
2022-09-05T17:34:51.242Z,19.41
2022-09-05T17:37:27.096Z,19.36
2022-09-05T17:40:31.825Z,19.25
2022-09-05T17:43:02.535Z,19.25
2022-09-05T17:45:44.777Z,19.30
2022-09-05T17:48:16.509Z,19.22
2022-09-05T17:50:51.505Z,19.06
2022-09-05T17:53:25.604Z,18.98
2022-09-05T17:55:54.722Z,18.92
2022-09-05T17:59:01.297Z,18.82
2022-09-05T18:01:28.843Z,18.74
2022-09-05T18:04:13.182Z,18.71
2022-09-05T18:06:47.072Z,18.66
2022-09-05T18:09:39.908Z,18.63
2022-09-05T18:13:13.551Z,18.56
2022-09-05T18:15:28.449Z,18.50
2022-09-05T18:18:01.296Z,18.55
2022-09-05T18:20:54.166Z,18.50
2022-09-05T18:23:54.532Z,18.47
2022-09-05T18:26:24.641Z,18.41
2022-09-05T18:29:21.332Z,18.34
2022-09-05T18:32:00.085Z,18.28
2022-09-05T18:34:32.208Z,18.14
2022-09-05T18:36:59.080Z,18.14
2022-09-05T18:39:38.051Z,18.14
2022-09-05T18:42:33.313Z,18.08
2022-09-05T18:45:28.737Z,18.05
2022-09-05T18:48:02.764Z,17.98
2022-09-05T18:50:34.805Z,17.92
2022-09-05T18:53:10.327Z,17.95
2022-09-05T18:56:27.405Z,17.95
2022-09-05T18:59:24.085Z,17.88
2022-09-05T19:02:00.366Z,17.83
2022-09-05T19:04:46.485Z,17.78
2022-09-05T19:07:28.215Z,17.77
2022-09-05T19:10:36.019Z,17.78
2022-09-05T19:13:18.518Z,17.73
2022-09-05T19:16:43.184Z,17.73
2022-09-05T19:19:16.672Z,17.63
2022-09-05T19:22:05.538Z,17.64
2022-09-05T19:24:45.376Z,17.57
2022-09-05T19:30:19.329Z,17.59
2022-09-05T19:36:56.310Z,17.49
2022-09-05T19:37:06.455Z,17.50
2022-09-05T19:37:25.452Z,17.50
2022-09-05T19:40:46.715Z,17.51
2022-09-05T19:47:29.406Z,17.52
2022-09-05T19:47:47.448Z,17.50
2022-09-05T19:50:27.860Z,17.50
2022-09-05T19:53:07.735Z,17.48
2022-09-05T19:55:37.721Z,17.46
2022-09-05T19:58:29.466Z,17.51
2022-09-05T20:01:08.427Z,17.55
2022-09-05T20:03:41.922Z,17.52
2022-09-05T20:06:30.291Z,17.47
2022-09-05T20:09:21.467Z,17.42
2022-09-05T20:11:56.030Z,17.42
2022-09-05T20:14:28.986Z,17.44
2022-09-05T20:17:16.956Z,17.47
2022-09-05T20:19:44.817Z,17.46
2022-09-05T20:22:46.885Z,17.42
2022-09-05T20:25:19.890Z,17.37
2022-09-05T20:28:07.108Z,17.33
2022-09-05T20:30:42.309Z,17.27
2022-09-05T20:33:36.857Z,17.26
2022-09-05T20:43:08.717Z,17.24
2022-09-05T20:43:25.125Z,17.23
2022-09-05T20:43:35.737Z,17.22
2022-09-05T20:44:50.707Z,17.22
2022-09-05T20:52:49.048Z,17.22
2022-09-05T20:54:14.521Z,17.03
2022-09-05T20:54:27.071Z,17.13
2022-09-05T20:56:23.630Z,17.06
2022-09-05T20:58:51.592Z,17.03
2022-09-05T21:01:23.420Z,16.98
2022-09-05T21:03:59.386Z,17.00
2022-09-05T21:06:34.401Z,16.98
2022-09-05T21:09:26.210Z,16.94
2022-09-05T21:11:55.789Z,16.99
2022-09-05T21:14:24.201Z,16.97
2022-09-05T21:17:14.901Z,16.95
2022-09-05T21:19:53.499Z,17.00
2022-09-05T21:22:33.232Z,16.97
2022-09-05T21:25:15.154Z,16.95
2022-09-05T21:27:54.487Z,16.89
2022-09-05T21:30:29.410Z,16.91
2022-09-05T21:33:18.166Z,16.82
2022-09-05T21:35:48.818Z,16.82
2022-09-05T21:38:18.361Z,16.79
2022-09-05T21:41:04.629Z,16.79
2022-09-05T21:47:38.804Z,16.77
2022-09-05T21:47:46.807Z,16.69
2022-09-05T21:49:14.266Z,16.71
2022-09-05T21:51:40.903Z,16.67
2022-09-05T21:59:16.076Z,16.63
2022-09-05T21:59:25.144Z,16.54
2022-09-05T21:59:59.535Z,16.52
2022-09-05T22:02:46.724Z,16.43
2022-09-05T22:05:13.707Z,16.42
2022-09-05T22:07:40.540Z,16.34
2022-09-05T22:10:08.597Z,16.35
2022-09-05T22:12:38.965Z,16.34
2022-09-05T22:15:27.471Z,16.32
2022-09-05T22:18:16.454Z,16.31
2022-09-05T22:20:44.891Z,16.27
2022-09-05T22:23:11.938Z,16.23
2022-09-05T22:25:39.315Z,16.25
2022-09-05T22:28:12.763Z,16.18
2022-09-05T22:30:39.754Z,16.23
2022-09-05T22:33:07.270Z,16.16
2022-09-05T22:35:35.855Z,16.20
2022-09-05T22:38:10.553Z,16.21
2022-09-05T22:40:40.842Z,16.22
2022-09-05T22:43:09.481Z,16.21
2022-09-05T22:45:38.051Z,16.21
2022-09-05T22:48:10.500Z,16.17
2022-09-05T22:50:38.349Z,16.18
2022-09-05T22:53:07.088Z,16.18
2022-09-05T22:55:35.154Z,16.20
2022-09-05T22:58:02.567Z,16.19
2022-09-05T23:00:29.532Z,16.14
2022-09-05T23:03:00.277Z,16.14
2022-09-05T23:05:27.242Z,16.14
2022-09-05T23:07:57.772Z,16.15
2022-09-05T23:10:25.463Z,16.09
2022-09-05T23:12:52.440Z,16.07
2022-09-05T23:15:19.453Z,16.06
2022-09-05T23:17:53.602Z,16.03
2022-09-05T23:20:20.368Z,16.02
2022-09-05T23:22:51.576Z,16.04
2022-09-05T23:25:18.700Z,16.02
2022-09-05T23:27:45.886Z,16.02
2022-09-05T23:30:12.624Z,16.00
2022-09-05T23:32:50.146Z,16.04
2022-09-05T23:35:20.783Z,15.95
2022-09-05T23:37:48.428Z,15.94
2022-09-05T23:40:17.841Z,15.92
2022-09-05T23:42:57.385Z,15.97
2022-09-05T23:45:24.998Z,15.96
2022-09-05T23:47:51.931Z,15.96
2022-09-05T23:50:19.646Z,15.91
2022-09-05T23:52:47.452Z,15.93
2022-09-05T23:55:17.034Z,15.94
2022-09-05T23:57:44.211Z,15.88
